Accueil
METAR-TAF:

METAR-TAF

Aéroports :

Frosinone, Italie

latitude: 41-38N, longitude: 013-18E, altitude: 180 m

Observation

Le bulletin a été fait il y a 5 heures et 44 minutes, à 17:55 UTC
Vent 7 kt de ouest/nord-ouest
Température 25°C
Humidité 74%
Pression 1016 hPa
Visibilité 10 km ou plus
Nuages épars à une hauteur de 3500 ft

METAR: LIRH 161755Z 30007KT 9999 SCT035 25/20 Q1016 RMK BKN BKN200 MON CIME INC NC VIS MIN 9999 WIND THR16 31008KT BLU

Heure: 01:39 (23:39 UTC)

Prévision

Le bulletin a été fait il y a 9 heures et 39 minutes, à 14:00 UTC
Prévision valable du 16 à 15 UTC au 16 à 24 UTC
Vent 8 kt de sud/sud-est
Visibilité 10 km ou plus
Quelques nuages à une hauteur de 3500 ft
Evoluant progressivement
du 16 à 17 UTC au 16 à 19 UTC
Vent 3 kt de direction variable

TAF: LIRH 161400Z 1615/1624 16008KT 9999 FEW035 BECMG 1617/1619 VRB03KT

Observations et prévisions météorologiques de plus de 4000 aéroports (messages METAR et TAF).

Les stations disponibles sont représentées par des disques jaunes et rouges sur la carte.

Passer la souris dessus pour voir le nom de la station.

Cliquer dessus pour voir les observations et prévisions météorologiques.

Pour changer de carte: cliquez sur les boutons verts avec une croix noire pour zoomer, sur le bouton vert avec un tiret pour effectuer un zoom arrière, ou sur les flèches vertes pour les cartes adjacentes.


METAR-TAF: